createdAt,value
2022-12-24T00:00:24.806Z,1.01
2022-12-24T00:01:59.376Z,0.93
2022-12-24T00:03:33.152Z,0.91
2022-12-24T00:05:07.657Z,0.81
2022-12-24T00:06:40.810Z,0.84
2022-12-24T00:08:13.008Z,0.91
2022-12-24T00:09:46.172Z,0.90
2022-12-24T00:11:19.958Z,0.93
2022-12-24T00:12:52.098Z,0.96
2022-12-24T00:14:25.247Z,0.97
2022-12-24T00:15:58.462Z,0.95
2022-12-24T00:17:33.003Z,0.93
2022-12-24T00:19:06.229Z,0.92
2022-12-24T00:20:39.348Z,0.89
2022-12-24T00:22:12.520Z,0.86
2022-12-24T00:23:44.878Z,0.91
2022-12-24T00:25:18.436Z,0.93
2022-12-24T00:26:51.627Z,0.95
2022-12-24T00:28:24.080Z,0.93
2022-12-24T00:29:57.251Z,0.92
2022-12-24T00:31:30.599Z,0.90
2022-12-24T00:33:04.372Z,0.88
2022-12-24T00:34:37.611Z,0.81
2022-12-24T00:36:10.059Z,0.78
2022-12-24T00:37:43.270Z,0.79
2022-12-24T00:39:16.440Z,0.72
2022-12-24T00:40:48.589Z,0.78
2022-12-24T00:42:21.783Z,0.80
2022-12-24T00:43:56.288Z,0.83
2022-12-24T00:45:29.449Z,0.78
2022-12-24T00:47:05.518Z,0.75
2022-12-24T00:48:44.582Z,0.73
2022-12-24T00:50:17.907Z,0.77
2022-12-24T00:51:51.165Z,0.75
2022-12-24T00:53:24.330Z,0.78
2022-12-24T00:54:57.576Z,0.64
2022-12-24T00:56:29.932Z,0.75
2022-12-24T00:58:03.040Z,0.73
2022-12-24T00:59:36.186Z,0.72
2022-12-24T01:01:08.517Z,0.69
2022-12-24T01:02:41.899Z,0.77
2022-12-24T01:04:34.448Z,0.80
2022-12-24T01:06:09.752Z,0.83
2022-12-24T01:07:44.316Z,0.82
2022-12-24T01:09:17.660Z,0.80
2022-12-24T01:10:50.779Z,0.79
2022-12-24T01:12:23.441Z,0.79
2022-12-24T01:13:57.371Z,0.87
2022-12-24T01:15:30.807Z,0.92
2022-12-24T01:17:03.083Z,0.96
2022-12-24T01:18:36.249Z,0.95
2022-12-24T01:20:16.165Z,0.99
2022-12-24T01:21:49.316Z,0.97
2022-12-24T01:23:22.424Z,0.95
2022-12-24T01:24:55.700Z,0.95
2022-12-24T01:26:28.856Z,0.94
2022-12-24T01:28:01.956Z,0.92
2022-12-24T01:29:34.273Z,0.92
2022-12-24T01:31:12.237Z,0.95
2022-12-24T01:32:45.389Z,0.98
2022-12-24T01:34:17.586Z,1.00
2022-12-24T01:35:52.125Z,0.98
2022-12-24T01:37:25.355Z,0.98
2022-12-24T01:38:57.531Z,0.97
2022-12-24T01:40:48.264Z,1.04
2022-12-24T01:42:41.321Z,1.06
2022-12-24T01:44:35.255Z,1.09
2022-12-24T01:46:15.043Z,1.08
2022-12-24T01:47:48.804Z,1.00
2022-12-24T01:49:22.200Z,1.02
2022-12-24T01:51:01.638Z,0.94
2022-12-24T01:52:37.074Z,0.91
2022-12-24T01:54:13.367Z,0.86
2022-12-24T01:55:48.221Z,0.73
2022-12-24T01:57:27.287Z,0.69
2022-12-24T01:59:05.806Z,0.59
2022-12-24T02:00:38.174Z,0.66
2022-12-24T02:02:12.076Z,0.64
2022-12-24T02:03:44.733Z,0.67
2022-12-24T02:05:24.665Z,0.68
2022-12-24T02:06:59.282Z,0.65
2022-12-24T02:08:40.076Z,0.66
2022-12-24T02:10:14.709Z,0.62
2022-12-24T02:11:48.307Z,0.61
2022-12-24T02:13:22.785Z,0.57
2022-12-24T02:14:55.258Z,0.54
2022-12-24T02:16:39.708Z,0.44
2022-12-24T02:18:21.548Z,0.26
2022-12-24T02:20:32.016Z,0.22
2022-12-24T02:22:11.588Z,0.22
2022-12-24T02:24:02.858Z,0.18
2022-12-24T02:26:08.278Z,0.17
2022-12-24T02:27:56.992Z,0.18
2022-12-24T02:30:00.091Z,0.10
2022-12-24T02:31:42.824Z,0.18
2022-12-24T02:33:31.208Z,0.16
2022-12-24T02:35:10.779Z,0.11
2022-12-24T02:36:48.383Z,0.13
2022-12-24T02:38:28.364Z,0.08
2022-12-24T02:40:13.772Z,0.10
2022-12-24T02:42:08.885Z,0.04
2022-12-24T02:43:46.127Z,0.05
2022-12-24T02:45:23.160Z,0.03
2022-12-24T02:47:00.485Z,0.04
2022-12-24T02:48:34.290Z,-0.02
2022-12-24T02:50:09.713Z,-0.01
2022-12-24T02:51:43.133Z,-0.03
2022-12-24T02:53:16.211Z,0.03
2022-12-24T02:54:49.429Z,0.05
2022-12-24T02:56:37.965Z,0.14
2022-12-24T02:58:26.220Z,0.17
2022-12-24T03:00:04.010Z,0.24
2022-12-24T03:01:50.199Z,0.28
2022-12-24T03:03:43.293Z,0.31
2022-12-24T03:05:23.965Z,0.40
2022-12-24T03:07:02.268Z,0.35
2022-12-24T03:08:45.238Z,0.49
2022-12-24T03:10:23.277Z,0.51
2022-12-24T03:12:02.815Z,0.49
2022-12-24T03:13:36.197Z,0.40
2022-12-24T03:15:10.288Z,0.46
2022-12-24T03:16:45.317Z,0.49
2022-12-24T03:18:20.789Z,0.47
2022-12-24T03:19:56.719Z,0.52
2022-12-24T03:21:34.621Z,0.54
2022-12-24T03:23:08.111Z,0.45
2022-12-24T03:24:40.311Z,0.44
2022-12-24T03:26:15.790Z,0.43
2022-12-24T03:27:48.368Z,0.43
2022-12-24T03:29:21.887Z,0.41
2022-12-24T03:30:55.755Z,0.44
2022-12-24T03:32:29.839Z,0.45
2022-12-24T03:34:02.937Z,0.47
2022-12-24T03:35:36.450Z,0.46
2022-12-24T03:37:09.668Z,0.43
2022-12-24T03:38:41.818Z,0.44
2022-12-24T03:40:15.338Z,0.46
2022-12-24T03:41:47.761Z,0.46
2022-12-24T03:43:20.948Z,0.47
2022-12-24T03:44:54.082Z,0.49
2022-12-24T03:46:27.299Z,0.50
2022-12-24T03:48:00.523Z,0.55
2022-12-24T03:49:33.661Z,0.57
2022-12-24T03:51:18.937Z,0.54
2022-12-24T03:52:52.141Z,0.52
2022-12-24T03:54:25.307Z,0.52
2022-12-24T03:55:58.454Z,0.53
2022-12-24T03:57:30.619Z,0.53
2022-12-24T03:59:03.923Z,0.54
2022-12-24T04:00:36.065Z,0.52
2022-12-24T04:02:09.548Z,0.44
2022-12-24T04:03:41.885Z,0.48
2022-12-24T04:05:16.213Z,0.52
2022-12-24T04:06:50.808Z,0.50
2022-12-24T04:08:23.901Z,0.45
2022-12-24T04:09:57.016Z,0.47
2022-12-24T04:11:29.173Z,0.51
2022-12-24T04:13:02.300Z,0.54
2022-12-24T04:14:35.567Z,0.54
2022-12-24T04:16:10.983Z,0.58
2022-12-24T04:17:44.183Z,0.56
2022-12-24T04:19:17.336Z,0.46
2022-12-24T04:20:50.455Z,0.42
2022-12-24T04:22:24.945Z,0.40
2022-12-24T04:23:58.079Z,0.39
2022-12-24T04:25:31.160Z,0.37
2022-12-24T04:27:04.450Z,0.37
2022-12-24T04:28:38.200Z,0.37
2022-12-24T04:30:12.036Z,0.38
2022-12-24T04:31:45.315Z,0.37
2022-12-24T04:33:17.446Z,0.31
2022-12-24T04:34:50.590Z,0.28
2022-12-24T04:36:23.820Z,0.24
2022-12-24T04:37:58.424Z,0.18
2022-12-24T04:39:31.604Z,0.20
2022-12-24T04:41:05.609Z,0.17
2022-12-24T04:42:38.791Z,0.21
2022-12-24T04:44:10.936Z,0.18
2022-12-24T04:45:44.188Z,0.22
2022-12-24T04:47:17.476Z,0.27
2022-12-24T04:48:55.013Z,0.28
2022-12-24T04:50:27.311Z,0.29
2022-12-24T04:52:00.416Z,0.32
2022-12-24T04:53:34.845Z,0.27
2022-12-24T04:55:09.257Z,0.31
2022-12-24T04:56:42.679Z,0.28
2022-12-24T04:58:15.870Z,0.27
2022-12-24T04:59:49.611Z,0.27
2022-12-24T05:01:24.284Z,0.29
2022-12-24T05:02:57.519Z,0.33
2022-12-24T05:04:32.004Z,0.34
2022-12-24T05:06:05.432Z,0.33
2022-12-24T05:07:38.831Z,0.32
2022-12-24T05:09:13.211Z,0.25
2022-12-24T05:10:46.420Z,0.23
2022-12-24T05:12:19.678Z,0.27
2022-12-24T05:13:51.908Z,0.31
2022-12-24T05:15:25.557Z,0.35
2022-12-24T05:16:58.825Z,0.35
2022-12-24T05:18:31.331Z,0.38
2022-12-24T05:20:08.775Z,0.34
2022-12-24T05:21:41.844Z,0.36
2022-12-24T05:23:35.280Z,0.30
2022-12-24T05:25:28.717Z,0.19
2022-12-24T05:27:01.936Z,0.23
2022-12-24T05:28:35.190Z,0.19
2022-12-24T05:30:09.694Z,0.14
2022-12-24T05:31:45.373Z,0.13
2022-12-24T05:33:19.065Z,0.15
2022-12-24T05:34:52.361Z,0.12
2022-12-24T05:36:25.615Z,0.08
2022-12-24T05:37:58.589Z,0.04
2022-12-24T05:39:31.842Z,0.07
2022-12-24T05:41:06.296Z,0.08
2022-12-24T05:42:39.675Z,0.08
2022-12-24T05:44:13.034Z,0.05
2022-12-24T05:45:46.766Z,0.10
2022-12-24T05:47:19.999Z,0.11
2022-12-24T05:48:54.457Z,0.10
2022-12-24T05:50:28.625Z,0.12
2022-12-24T05:52:11.438Z,0.18
2022-12-24T05:53:43.874Z,0.19
2022-12-24T05:55:17.032Z,0.20
2022-12-24T05:56:51.591Z,0.23
2022-12-24T05:58:23.800Z,0.23
2022-12-24T05:59:57.002Z,0.24
2022-12-24T06:01:30.649Z,0.19
2022-12-24T06:03:04.416Z,0.20
2022-12-24T06:04:37.645Z,0.19
2022-12-24T06:06:13.941Z,0.22
2022-12-24T06:07:46.165Z,0.19
2022-12-24T06:09:19.403Z,0.17
2022-12-24T06:10:56.094Z,0.15
2022-12-24T06:12:31.332Z,0.13
2022-12-24T06:14:04.901Z,0.15
2022-12-24T06:15:37.987Z,0.08
2022-12-24T06:17:11.213Z,0.12
2022-12-24T06:18:44.519Z,0.14
2022-12-24T06:20:17.895Z,0.15
2022-12-24T06:21:51.720Z,0.14
2022-12-24T06:23:24.599Z,0.13
2022-12-24T06:24:58.122Z,0.20
2022-12-24T06:26:31.643Z,0.24
2022-12-24T06:28:05.720Z,0.26
2022-12-24T06:29:39.450Z,0.27
2022-12-24T06:31:14.972Z,0.31
2022-12-24T06:32:48.483Z,0.39
2022-12-24T06:34:23.915Z,0.47
2022-12-24T06:35:57.067Z,0.52
2022-12-24T06:37:30.800Z,0.61
2022-12-24T06:39:03.000Z,0.67
2022-12-24T06:40:36.658Z,0.73
2022-12-24T06:42:09.759Z,0.77
2022-12-24T06:43:47.220Z,0.83
2022-12-24T06:45:20.592Z,0.88
2022-12-24T06:46:53.993Z,0.86
2022-12-24T06:48:27.653Z,0.89
2022-12-24T06:50:00.858Z,0.99
2022-12-24T06:51:34.309Z,1.01
2022-12-24T06:53:07.738Z,1.07
2022-12-24T06:54:41.370Z,1.15
2022-12-24T06:56:14.764Z,1.16
2022-12-24T06:57:48.356Z,1.20
2022-12-24T06:59:23.046Z,1.26
2022-12-24T07:00:56.509Z,1.17
2022-12-24T07:02:29.646Z,1.20
2022-12-24T07:04:03.363Z,1.22
2022-12-24T07:05:38.663Z,1.16
2022-12-24T07:07:13.112Z,1.25
2022-12-24T07:08:46.298Z,1.24
2022-12-24T07:10:19.286Z,1.31
2022-12-24T07:11:52.655Z,1.35
2022-12-24T07:13:25.819Z,1.33
2022-12-24T07:15:00.468Z,1.34
2022-12-24T07:16:33.803Z,1.36
2022-12-24T07:18:07.785Z,1.34
2022-12-24T07:19:40.876Z,1.35
2022-12-24T07:21:13.299Z,1.36
2022-12-24T07:22:47.949Z,1.40
2022-12-24T07:24:21.632Z,1.47
2022-12-24T07:25:53.812Z,1.47
2022-12-24T07:27:27.125Z,1.56
2022-12-24T07:29:00.333Z,1.63
2022-12-24T07:30:34.396Z,1.73
2022-12-24T07:32:08.102Z,1.82
2022-12-24T07:33:41.487Z,1.83
2022-12-24T07:35:15.484Z,1.87
2022-12-24T07:36:49.051Z,1.95
2022-12-24T07:38:22.210Z,1.97
2022-12-24T07:39:55.295Z,1.96
2022-12-24T07:41:28.456Z,2.00
2022-12-24T07:43:01.044Z,2.14
2022-12-24T07:44:34.483Z,2.26
2022-12-24T07:46:09.816Z,2.45
2022-12-24T07:47:43.535Z,2.59
2022-12-24T07:49:17.276Z,2.70
2022-12-24T07:50:50.888Z,2.91
2022-12-24T07:52:24.174Z,3.09
2022-12-24T07:53:57.389Z,3.19
2022-12-24T07:55:31.995Z,3.16
2022-12-24T07:57:05.587Z,3.17
2022-12-24T07:58:37.819Z,3.14
2022-12-24T08:00:12.106Z,3.07
2022-12-24T08:01:47.803Z,3.07
2022-12-24T08:03:22.958Z,3.12
2022-12-24T08:04:56.898Z,2.94
2022-12-24T08:06:30.281Z,2.90
2022-12-24T08:08:03.218Z,2.89
2022-12-24T08:09:37.811Z,2.90
2022-12-24T08:11:10.993Z,2.84
2022-12-24T08:12:45.606Z,2.82
2022-12-24T08:14:19.447Z,2.89
2022-12-24T08:15:51.789Z,2.97
2022-12-24T08:17:31.988Z,3.14
2022-12-24T08:19:06.011Z,3.36
2022-12-24T08:20:43.006Z,3.42
2022-12-24T08:22:16.951Z,3.50
2022-12-24T08:23:50.360Z,3.60
2022-12-24T08:25:22.516Z,3.57
2022-12-24T08:26:55.898Z,3.55
2022-12-24T08:28:29.341Z,3.59
2022-12-24T08:30:03.165Z,3.56
2022-12-24T08:31:38.250Z,3.49
2022-12-24T08:33:13.063Z,3.52
2022-12-24T08:34:46.172Z,3.53
2022-12-24T08:36:20.367Z,3.63
2022-12-24T08:37:53.670Z,3.85
2022-12-24T08:39:26.740Z,4.07
2022-12-24T08:41:00.911Z,4.07
2022-12-24T08:42:34.071Z,4.16
2022-12-24T08:44:07.702Z,4.23
2022-12-24T08:45:41.372Z,4.30
2022-12-24T08:47:14.614Z,4.51
2022-12-24T08:48:49.439Z,4.72
2022-12-24T08:50:23.410Z,4.77
2022-12-24T08:51:56.555Z,4.71
2022-12-24T08:53:29.316Z,4.69
2022-12-24T08:55:04.702Z,4.74
2022-12-24T08:56:38.112Z,4.83
2022-12-24T08:58:12.572Z,4.86
2022-12-24T08:59:45.754Z,4.96
2022-12-24T09:01:21.503Z,5.04
2022-12-24T09:02:54.890Z,5.13
2022-12-24T09:04:30.697Z,5.23
2022-12-24T09:06:05.321Z,5.27
2022-12-24T09:07:38.733Z,5.29
2022-12-24T09:09:11.893Z,5.32
2022-12-24T09:10:44.999Z,5.31
2022-12-24T09:12:18.161Z,5.37
2022-12-24T09:13:55.088Z,5.39
2022-12-24T09:15:28.544Z,5.37
2022-12-24T09:17:06.546Z,5.30
2022-12-24T09:18:40.426Z,5.32
2022-12-24T09:20:15.409Z,5.32
2022-12-24T09:21:48.718Z,5.29
2022-12-24T09:23:21.862Z,5.29
2022-12-24T09:24:56.167Z,5.30
2022-12-24T09:26:31.555Z,5.34
2022-12-24T09:28:04.846Z,5.28
2022-12-24T09:29:40.682Z,5.27
2022-12-24T09:31:14.509Z,5.26
2022-12-24T09:32:47.705Z,5.28
2022-12-24T09:34:25.173Z,5.37
2022-12-24T09:36:05.448Z,5.43
2022-12-24T09:37:41.968Z,5.47
2022-12-24T09:39:15.911Z,5.46
2022-12-24T09:40:49.405Z,5.49
2022-12-24T09:42:31.922Z,5.58
2022-12-24T09:44:19.840Z,5.72
2022-12-24T09:46:08.387Z,5.75
2022-12-24T09:47:47.942Z,5.67
2022-12-24T09:49:25.607Z,5.65
2022-12-24T09:51:05.520Z,5.65
2022-12-24T09:52:45.457Z,5.73
2022-12-24T09:54:23.710Z,5.80
2022-12-24T09:55:59.630Z,5.87
2022-12-24T09:57:38.322Z,5.99
2022-12-24T09:59:15.713Z,5.93
2022-12-24T10:00:50.357Z,6.05
2022-12-24T10:02:23.963Z,6.15
2022-12-24T10:04:00.408Z,6.26
2022-12-24T10:05:41.620Z,6.25
2022-12-24T10:07:29.590Z,6.30
2022-12-24T10:09:15.123Z,6.30
2022-12-24T10:10:53.223Z,6.28
2022-12-24T10:12:34.197Z,6.30
2022-12-24T10:14:20.508Z,6.32
2022-12-24T10:16:01.894Z,6.35
2022-12-24T10:17:53.643Z,6.42
2022-12-24T10:19:49.417Z,6.43
2022-12-24T10:21:33.667Z,6.52
2022-12-24T10:23:15.612Z,6.55
2022-12-24T10:24:59.579Z,6.55
2022-12-24T10:26:41.349Z,6.58
2022-12-24T10:28:19.323Z,6.60
2022-12-24T10:29:58.851Z,6.62
2022-12-24T10:31:40.888Z,6.51
2022-12-24T10:33:20.402Z,6.53
2022-12-24T10:35:00.455Z,6.53
2022-12-24T10:36:33.735Z,6.54
2022-12-24T10:38:06.952Z,6.52
2022-12-24T10:39:40.798Z,6.56
2022-12-24T10:41:17.319Z,6.51
2022-12-24T10:42:51.597Z,6.54
2022-12-24T10:44:29.288Z,6.57
2022-12-24T10:46:07.917Z,6.59
2022-12-24T10:47:43.537Z,6.60
2022-12-24T10:49:20.038Z,6.68
2022-12-24T10:50:58.583Z,6.73
2022-12-24T10:52:36.838Z,6.75
2022-12-24T10:54:19.455Z,6.80
2022-12-24T10:56:03.415Z,6.84
2022-12-24T10:57:39.676Z,6.85
2022-12-24T10:59:26.789Z,6.89
2022-12-24T11:00:59.995Z,6.88
2022-12-24T11:02:35.232Z,6.91
2022-12-24T11:04:16.516Z,6.92
2022-12-24T11:06:06.038Z,6.93
2022-12-24T11:07:39.948Z,6.94
2022-12-24T11:09:23.480Z,6.89
2022-12-24T11:10:58.614Z,6.84
2022-12-24T11:12:35.291Z,6.86
2022-12-24T11:14:18.190Z,6.84
2022-12-24T11:16:01.716Z,6.80
2022-12-24T11:17:35.614Z,6.72
2022-12-24T11:19:21.241Z,6.65
2022-12-24T11:20:59.554Z,6.73
2022-12-24T11:22:33.944Z,6.77
2022-12-24T11:24:15.719Z,6.79
2022-12-24T11:25:51.854Z,6.75
2022-12-24T11:27:32.142Z,6.79
2022-12-24T11:29:13.632Z,6.86
2022-12-24T11:31:01.569Z,6.87
2022-12-24T11:32:34.987Z,6.91
2022-12-24T11:34:23.599Z,6.90
2022-12-24T11:36:04.622Z,6.95
2022-12-24T11:37:38.375Z,6.96
2022-12-24T11:39:21.469Z,6.93
2022-12-24T11:41:13.400Z,7.01
2022-12-24T11:42:46.632Z,7.03
2022-12-24T11:44:27.907Z,7.08
2022-12-24T11:46:14.626Z,7.08
2022-12-24T11:47:47.990Z,7.11
2022-12-24T11:49:27.354Z,7.10
2022-12-24T11:51:04.974Z,7.13
2022-12-24T11:52:39.437Z,7.11
2022-12-24T11:54:21.744Z,7.18
2022-12-24T11:55:58.021Z,7.20
2022-12-24T11:57:45.553Z,7.28
2022-12-24T11:59:25.234Z,7.30
2022-12-24T12:01:10.163Z,7.40
2022-12-24T12:02:52.888Z,7.47
2022-12-24T12:04:30.801Z,7.53
2022-12-24T12:06:09.101Z,7.58
2022-12-24T12:07:44.692Z,7.57
2022-12-24T12:09:22.841Z,7.57
2022-12-24T12:10:57.958Z,7.61
2022-12-24T12:12:33.928Z,7.62
2022-12-24T12:14:11.435Z,7.63
2022-12-24T12:15:50.262Z,7.56
2022-12-24T12:17:32.544Z,7.56
2022-12-24T12:19:14.937Z,7.50
2022-12-24T12:20:52.021Z,7.55
2022-12-24T12:22:31.606Z,7.61
2022-12-24T12:24:08.346Z,7.64
2022-12-24T12:25:48.495Z,7.55
2022-12-24T12:27:29.282Z,7.58
2022-12-24T12:29:06.450Z,7.60
2022-12-24T12:30:42.329Z,7.65
2022-12-24T12:32:28.370Z,7.68
2022-12-24T12:34:07.518Z,7.70
2022-12-24T12:35:43.293Z,7.67
2022-12-24T12:37:21.832Z,7.57
2022-12-24T12:38:55.226Z,7.59
2022-12-24T12:40:41.520Z,7.63
2022-12-24T12:42:24.782Z,7.59
2022-12-24T12:44:26.281Z,7.53
2022-12-24T12:46:09.941Z,7.56
2022-12-24T12:48:01.373Z,7.54
2022-12-24T12:49:44.352Z,7.56
2022-12-24T12:51:23.941Z,7.55
2022-12-24T12:53:29.597Z,7.52
2022-12-24T12:55:23.886Z,7.43
2022-12-24T12:57:04.452Z,7.48
2022-12-24T12:58:41.132Z,7.49
2022-12-24T13:00:18.976Z,7.39
2022-12-24T13:02:02.318Z,7.46
2022-12-24T13:04:11.570Z,7.41
2022-12-24T13:06:14.752Z,7.46
2022-12-24T13:08:03.563Z,7.47
2022-12-24T13:10:04.666Z,7.42
2022-12-24T13:12:01.614Z,7.45
2022-12-24T13:13:54.118Z,7.49
2022-12-24T13:15:51.822Z,7.48
2022-12-24T13:17:46.924Z,7.51
2022-12-24T13:19:38.216Z,7.54
2022-12-24T13:21:18.910Z,7.57
2022-12-24T13:22:59.165Z,7.58
2022-12-24T13:24:35.500Z,7.60
2022-12-24T13:26:14.116Z,7.61
2022-12-24T13:27:47.657Z,7.63
2022-12-24T13:29:43.393Z,7.64
2022-12-24T13:31:29.882Z,7.64
2022-12-24T13:33:04.127Z,7.64
2022-12-24T13:34:39.304Z,7.64
2022-12-24T13:36:16.714Z,7.65
2022-12-24T13:37:52.763Z,7.64
2022-12-24T13:39:26.473Z,7.67
2022-12-24T13:41:50.670Z,7.67
2022-12-24T13:43:24.426Z,7.68
2022-12-24T13:45:30.750Z,7.70
2022-12-24T13:47:25.338Z,7.72
2022-12-24T13:49:13.396Z,7.69
2022-12-24T13:50:50.623Z,7.66
2022-12-24T13:52:37.654Z,7.64
2022-12-24T13:54:19.744Z,7.66
2022-12-24T13:55:55.613Z,7.62
2022-12-24T13:57:34.015Z,7.64
2022-12-24T13:59:33.133Z,7.57
2022-12-24T14:01:13.412Z,7.52
2022-12-24T14:02:50.668Z,7.46
2022-12-24T14:04:28.293Z,7.46
2022-12-24T14:06:05.144Z,7.50
2022-12-24T14:07:38.721Z,7.47
2022-12-24T14:09:18.075Z,7.45
2022-12-24T14:11:04.976Z,7.41
2022-12-24T14:12:50.050Z,7.43
2022-12-24T14:14:31.996Z,7.44
2022-12-24T14:16:06.276Z,7.36
2022-12-24T14:17:40.769Z,7.41
2022-12-24T14:19:17.832Z,7.41
2022-12-24T14:20:54.710Z,7.37
2022-12-24T14:22:32.039Z,7.36
2022-12-24T14:24:13.420Z,7.39
2022-12-24T14:25:48.239Z,7.39
2022-12-24T14:27:26.126Z,7.35
2022-12-24T14:29:05.057Z,7.31
2022-12-24T14:30:39.267Z,7.33
2022-12-24T14:32:16.272Z,7.39
2022-12-24T14:33:50.048Z,7.40
2022-12-24T14:35:27.028Z,7.42
2022-12-24T14:37:05.259Z,7.37
2022-12-24T14:38:42.043Z,7.35
2022-12-24T14:40:19.793Z,7.32
2022-12-24T14:42:03.497Z,7.28
2022-12-24T14:43:54.384Z,7.23
2022-12-24T14:45:35.122Z,7.22
2022-12-24T14:47:22.110Z,7.24
2022-12-24T14:48:58.870Z,7.22
2022-12-24T14:50:49.322Z,7.22
2022-12-24T14:53:04.031Z,7.23
2022-12-24T14:54:36.287Z,7.27
2022-12-24T14:56:17.271Z,7.27
2022-12-24T14:57:52.246Z,7.27
2022-12-24T14:59:26.966Z,7.28
2022-12-24T15:01:02.025Z,7.27
2022-12-24T15:02:44.356Z,7.27
2022-12-24T15:04:19.457Z,7.29
2022-12-24T15:05:55.884Z,7.28
2022-12-24T15:07:28.369Z,7.22
2022-12-24T15:09:02.959Z,7.21
2022-12-24T15:10:38.928Z,7.15
2022-12-24T15:12:14.257Z,7.16
2022-12-24T15:13:53.978Z,7.15
2022-12-24T15:15:27.177Z,7.16
2022-12-24T15:17:03.575Z,7.16
2022-12-24T15:18:39.860Z,7.16
2022-12-24T15:20:17.439Z,7.16
2022-12-24T15:21:51.114Z,7.15
2022-12-24T15:23:29.136Z,7.09
2022-12-24T15:25:02.379Z,7.07
2022-12-24T15:26:37.226Z,7.05
2022-12-24T15:28:19.612Z,7.01
2022-12-24T15:29:58.352Z,7.02
2022-12-24T15:31:32.979Z,6.94
2022-12-24T15:33:07.481Z,7.05
2022-12-24T15:34:42.657Z,7.05
2022-12-24T15:36:16.215Z,7.11
2022-12-24T15:37:49.508Z,7.13
2022-12-24T15:39:22.788Z,7.19
2022-12-24T15:40:56.410Z,7.19
2022-12-24T15:42:32.397Z,7.20
2022-12-24T15:44:09.473Z,7.20
2022-12-24T15:45:48.568Z,7.18
2022-12-24T15:47:28.055Z,7.22
2022-12-24T15:49:03.868Z,7.20
2022-12-24T15:50:39.263Z,7.20
2022-12-24T15:52:16.086Z,7.25
2022-12-24T15:53:50.102Z,7.24
2022-12-24T15:55:28.799Z,7.19
2022-12-24T15:57:14.502Z,7.22
2022-12-24T15:58:47.860Z,7.25
2022-12-24T16:00:24.174Z,7.28
2022-12-24T16:02:20.077Z,7.24
2022-12-24T16:04:00.551Z,7.25
2022-12-24T16:05:37.051Z,7.29
2022-12-24T16:07:25.821Z,7.32
2022-12-24T16:08:59.027Z,7.32
2022-12-24T16:10:32.129Z,7.30
2022-12-24T16:12:06.162Z,7.28
2022-12-24T16:13:43.329Z,7.31
2022-12-24T16:15:16.950Z,7.34
2022-12-24T16:16:53.008Z,7.35
2022-12-24T16:18:33.537Z,7.33
2022-12-24T16:20:17.540Z,7.35
2022-12-24T16:21:54.600Z,7.30
2022-12-24T16:23:34.014Z,7.29
2022-12-24T16:25:24.215Z,7.24
2022-12-24T16:26:59.164Z,7.25
2022-12-24T16:28:31.586Z,7.22
2022-12-24T16:30:05.705Z,7.19
2022-12-24T16:31:44.577Z,7.16
2022-12-24T16:33:22.277Z,7.16
2022-12-24T16:34:57.354Z,7.14
2022-12-24T16:36:32.041Z,7.05
2022-12-24T16:38:05.925Z,7.07
2022-12-24T16:39:39.044Z,7.13
2022-12-24T16:41:12.967Z,7.16
2022-12-24T16:43:03.802Z,7.16
2022-12-24T16:44:36.414Z,7.18
2022-12-24T16:46:10.125Z,7.17
2022-12-24T16:47:43.949Z,7.15
2022-12-24T16:49:18.697Z,7.19
2022-12-24T16:50:55.025Z,7.19
2022-12-24T16:52:30.122Z,7.20
2022-12-24T16:54:03.807Z,7.17
2022-12-24T16:55:37.222Z,7.17
2022-12-24T16:57:11.831Z,7.15
2022-12-24T16:58:45.831Z,7.12
2022-12-24T17:00:21.908Z,7.10
2022-12-24T17:01:56.251Z,7.08
2022-12-24T17:03:29.801Z,7.09
2022-12-24T17:05:02.958Z,7.03
2022-12-24T17:06:37.961Z,7.03
2022-12-24T17:08:12.040Z,7.01
2022-12-24T17:09:45.576Z,6.98
2022-12-24T17:11:23.378Z,6.96
2022-12-24T17:12:56.737Z,6.98
2022-12-24T17:14:30.173Z,6.98
2022-12-24T17:16:03.704Z,6.97
2022-12-24T17:17:37.926Z,6.96
2022-12-24T17:19:11.679Z,6.99
2022-12-24T17:20:57.615Z,7.03
2022-12-24T17:22:32.446Z,7.02
2022-12-24T17:24:06.913Z,7.04
2022-12-24T17:25:40.356Z,7.02
2022-12-24T17:27:12.731Z,7.05
2022-12-24T17:28:45.879Z,7.05
2022-12-24T17:30:19.402Z,7.01
2022-12-24T17:31:53.151Z,6.99
2022-12-24T17:33:26.579Z,6.99
2022-12-24T17:35:00.212Z,7.01
2022-12-24T17:36:34.595Z,7.02
2022-12-24T17:38:09.535Z,6.99
2022-12-24T17:39:42.707Z,6.91
2022-12-24T17:41:18.888Z,6.87
2022-12-24T17:42:53.097Z,6.84
2022-12-24T17:44:26.401Z,6.86
2022-12-24T17:46:00.104Z,6.85
2022-12-24T17:47:33.338Z,6.85
2022-12-24T17:49:07.258Z,6.88
2022-12-24T17:50:41.295Z,6.88
2022-12-24T17:52:15.292Z,6.85
2022-12-24T17:53:51.093Z,6.81
2022-12-24T17:55:24.476Z,6.77
2022-12-24T17:57:01.911Z,6.70
2022-12-24T17:58:36.039Z,6.75
2022-12-24T18:00:10.601Z,6.75
2022-12-24T18:01:44.305Z,6.79
2022-12-24T18:03:17.598Z,6.80
2022-12-24T18:04:51.524Z,6.84
2022-12-24T18:06:25.075Z,6.89
2022-12-24T18:07:58.737Z,6.95
2022-12-24T18:09:33.527Z,7.01
2022-12-24T18:11:12.987Z,7.08
2022-12-24T18:12:46.633Z,7.11
2022-12-24T18:14:20.496Z,7.13
2022-12-24T18:15:53.873Z,7.18
2022-12-24T18:17:27.036Z,7.17
2022-12-24T18:19:00.023Z,7.13
2022-12-24T18:20:39.611Z,7.12
2022-12-24T18:22:16.487Z,7.19
2022-12-24T18:23:51.289Z,7.18
2022-12-24T18:25:26.888Z,7.14
2022-12-24T18:27:00.153Z,7.16
2022-12-24T18:28:34.204Z,7.11
2022-12-24T18:30:09.205Z,7.13
2022-12-24T18:31:42.790Z,7.15
2022-12-24T18:33:15.950Z,7.16
2022-12-24T18:34:52.384Z,7.26
2022-12-24T18:36:26.134Z,7.31
2022-12-24T18:37:59.333Z,7.33
2022-12-24T18:39:32.494Z,7.34
2022-12-24T18:41:08.605Z,7.34
2022-12-24T18:42:43.028Z,7.38
2022-12-24T18:44:22.546Z,7.37
2022-12-24T18:45:57.927Z,7.37
2022-12-24T18:47:31.079Z,7.38
2022-12-24T18:49:04.335Z,7.42
2022-12-24T18:50:38.457Z,7.44
2022-12-24T18:52:11.844Z,7.45
2022-12-24T18:53:45.538Z,7.46
2022-12-24T18:55:18.859Z,7.47
2022-12-24T18:56:53.391Z,7.43
2022-12-24T18:58:25.513Z,7.43
2022-12-24T18:59:59.291Z,7.37
2022-12-24T19:01:36.671Z,7.37
2022-12-24T19:03:10.171Z,7.33
2022-12-24T19:04:43.418Z,7.22
2022-12-24T19:06:17.543Z,7.22
2022-12-24T19:07:50.657Z,7.21
2022-12-24T19:09:24.398Z,7.20
2022-12-24T19:10:57.686Z,7.17
2022-12-24T19:12:32.187Z,7.15
2022-12-24T19:14:07.478Z,7.13
2022-12-24T19:15:42.228Z,7.04
2022-12-24T19:17:15.432Z,7.04
2022-12-24T19:18:48.561Z,7.04
2022-12-24T19:20:21.807Z,6.99
2022-12-24T19:21:54.971Z,7.00
2022-12-24T19:23:28.087Z,6.99
2022-12-24T19:25:01.297Z,6.99
2022-12-24T19:26:34.382Z,7.04
2022-12-24T19:28:09.802Z,7.03
2022-12-24T19:29:42.972Z,7.01
2022-12-24T19:31:18.348Z,6.99
2022-12-24T19:32:51.601Z,7.05
2022-12-24T19:34:24.733Z,6.95
2022-12-24T19:35:58.055Z,7.05
2022-12-24T19:37:31.567Z,7.06
2022-12-24T19:39:04.897Z,7.04
2022-12-24T19:40:37.330Z,7.02
2022-12-24T19:42:10.438Z,7.05
2022-12-24T19:43:46.814Z,7.05
2022-12-24T19:45:20.145Z,7.02
2022-12-24T19:46:53.424Z,7.01
2022-12-24T19:48:26.632Z,7.01
2022-12-24T19:50:00.296Z,6.97
2022-12-24T19:51:34.745Z,6.90
2022-12-24T19:53:07.910Z,6.85
2022-12-24T19:54:42.692Z,6.77
2022-12-24T19:56:16.577Z,6.71
2022-12-24T19:57:49.701Z,6.70
2022-12-24T19:59:24.236Z,6.64
2022-12-24T20:00:57.518Z,6.56
2022-12-24T20:02:30.906Z,6.52
2022-12-24T20:04:05.032Z,6.50
2022-12-24T20:05:41.484Z,6.48
2022-12-24T20:07:14.645Z,6.46
2022-12-24T20:08:48.323Z,6.46
2022-12-24T20:10:21.512Z,6.45
2022-12-24T20:11:54.736Z,6.45
2022-12-24T20:13:28.907Z,6.42
2022-12-24T20:15:03.559Z,6.46
2022-12-24T20:16:37.879Z,6.48
2022-12-24T20:18:12.926Z,6.49
2022-12-24T20:19:47.750Z,6.43
2022-12-24T20:21:20.418Z,6.47
2022-12-24T20:22:53.812Z,6.46
2022-12-24T20:24:28.257Z,6.46
2022-12-24T20:26:11.534Z,6.42
2022-12-24T20:27:44.881Z,6.43
2022-12-24T20:29:18.052Z,6.43
2022-12-24T20:30:52.672Z,6.40
2022-12-24T20:32:26.643Z,6.39
2022-12-24T20:34:00.905Z,6.29
2022-12-24T20:35:35.612Z,6.28
2022-12-24T20:37:08.869Z,6.33
2022-12-24T20:38:41.100Z,6.47
2022-12-24T20:40:14.362Z,6.56
2022-12-24T20:41:48.255Z,6.75
2022-12-24T20:43:24.337Z,6.93
2022-12-24T20:44:57.879Z,7.17
2022-12-24T20:46:32.549Z,7.33
2022-12-24T20:48:07.209Z,7.49
2022-12-24T20:49:40.521Z,7.64
2022-12-24T20:51:23.218Z,7.84
2022-12-24T20:52:57.281Z,7.94
2022-12-24T20:54:30.439Z,8.03
2022-12-24T20:56:03.926Z,8.11
2022-12-24T20:57:37.023Z,8.15
2022-12-24T20:59:10.198Z,8.18
2022-12-24T21:00:42.375Z,8.29
2022-12-24T21:02:17.068Z,8.37
2022-12-24T21:03:50.322Z,8.47
2022-12-24T21:05:23.497Z,8.62
2022-12-24T21:06:56.701Z,8.70
2022-12-24T21:08:29.868Z,8.78
2022-12-24T21:10:02.993Z,8.84
2022-12-24T21:11:57.076Z,8.91
2022-12-24T21:13:29.175Z,9.04
2022-12-24T21:15:02.262Z,9.10
2022-12-24T21:16:37.096Z,9.23
2022-12-24T21:18:12.007Z,9.46
2022-12-24T21:19:45.318Z,9.56
2022-12-24T21:21:17.822Z,9.60
2022-12-24T21:22:54.617Z,9.67
2022-12-24T21:24:30.469Z,9.72
2022-12-24T21:26:06.087Z,9.79